createdAt,value
2022-12-05T00:04:31.773Z,96845.16
2022-12-05T00:09:25.100Z,96850.09
2022-12-05T00:14:18.463Z,96830.84
2022-12-05T00:19:15.211Z,96847.34
2022-12-05T00:24:15.755Z,96843.06
2022-12-05T00:29:09.449Z,96830.13
2022-12-05T00:34:04.103Z,96836.00
2022-12-05T00:39:00.087Z,96840.66
2022-12-05T00:43:56.776Z,96846.03
2022-12-05T00:48:50.524Z,96867.78
2022-12-05T00:53:45.097Z,96888.34
2022-12-05T00:58:38.767Z,96896.44
2022-12-05T01:03:33.743Z,96906.09
2022-12-05T01:08:27.096Z,96915.53
2022-12-05T01:13:20.388Z,96901.72
2022-12-05T01:18:13.728Z,96901.09
2022-12-05T01:23:08.939Z,96920.63
2022-12-05T01:28:02.654Z,96911.03
2022-12-05T01:32:56.449Z,96903.47
2022-12-05T01:37:49.864Z,96903.78
2022-12-05T01:42:44.738Z,96902.66
2022-12-05T01:47:38.798Z,96917.13
2022-12-05T01:52:34.999Z,96911.72
2022-12-05T01:57:28.572Z,96916.75
2022-12-05T02:02:23.728Z,96931.56
2022-12-05T02:07:17.457Z,96948.09
2022-12-05T02:12:10.856Z,96947.88
2022-12-05T02:17:16.039Z,96934.69
2022-12-05T02:22:47.660Z,96939.78
2022-12-05T02:28:20.426Z,96924.41
2022-12-05T02:33:24.833Z,96923.31
2022-12-05T02:38:30.238Z,96928.28
2022-12-05T02:43:33.425Z,96934.41
2022-12-05T02:48:30.605Z,96921.34
2022-12-05T02:53:28.048Z,96921.22
2022-12-05T02:58:28.039Z,96922.19
2022-12-05T03:03:24.521Z,96932.56
2022-12-05T03:08:26.923Z,96950.56
2022-12-05T03:13:27.995Z,96939.16
2022-12-05T03:18:27.133Z,96943.72
2022-12-05T03:23:28.385Z,96941.75
2022-12-05T03:28:29.896Z,96945.16
2022-12-05T03:33:29.983Z,96941.41
2022-12-05T03:38:32.139Z,96954.91
2022-12-05T03:43:37.231Z,96967.06
2022-12-05T03:48:38.387Z,96964.44
2022-12-05T03:53:39.006Z,96954.53
2022-12-05T03:58:42.212Z,96946.00
2022-12-05T04:03:43.445Z,96951.94
2022-12-05T04:08:43.624Z,96950.75
2022-12-05T04:13:43.442Z,96946.25
2022-12-05T04:18:43.121Z,96929.53
2022-12-05T04:23:37.858Z,96943.34
2022-12-05T04:28:40.579Z,96958.00
2022-12-05T04:33:43.298Z,96974.97
2022-12-05T04:38:45.148Z,96974.94
2022-12-05T04:43:43.832Z,96969.66
2022-12-05T04:48:41.349Z,96979.97
2022-12-05T04:53:37.407Z,96977.34
2022-12-05T04:58:33.599Z,96981.25
2022-12-05T05:03:33.561Z,96977.00
2022-12-05T05:08:30.458Z,96965.41
2022-12-05T05:13:25.851Z,96975.44
2022-12-05T05:18:19.231Z,96984.50
2022-12-05T05:23:12.579Z,96993.28
2022-12-05T05:28:06.476Z,96999.69
2022-12-05T05:33:02.135Z,97015.94
2022-12-05T05:37:55.612Z,97026.34
2022-12-05T05:42:50.859Z,97020.03
2022-12-05T05:47:44.587Z,97035.44
2022-12-05T05:52:39.722Z,97038.56
2022-12-05T05:57:33.469Z,97038.72
2022-12-05T06:02:26.868Z,97041.88
2022-12-05T06:07:20.290Z,97044.66
2022-12-05T06:12:15.019Z,97050.94
2022-12-05T06:17:08.415Z,97061.16
2022-12-05T06:22:01.764Z,97072.97
2022-12-05T06:26:55.080Z,97087.22
2022-12-05T06:31:49.879Z,97070.81
2022-12-05T06:36:43.326Z,97064.16
2022-12-05T06:41:36.683Z,97079.44
2022-12-05T06:46:30.205Z,97072.78
2022-12-05T06:51:25.770Z,97087.00
2022-12-05T06:56:21.517Z,97095.56
2022-12-05T07:01:33.828Z,97104.59
2022-12-05T07:06:30.072Z,97118.69
2022-12-05T07:11:23.491Z,97125.69
2022-12-05T07:16:16.801Z,97125.28
2022-12-05T07:21:15.153Z,97134.66
2022-12-05T07:26:13.375Z,97142.50
2022-12-05T07:31:09.735Z,97135.56
2022-12-05T07:36:05.121Z,97145.03
2022-12-05T07:40:58.671Z,97136.38
2022-12-05T07:45:53.549Z,97130.25
2022-12-05T07:50:47.078Z,97146.28
2022-12-05T07:55:40.510Z,97161.56
2022-12-05T08:00:34.257Z,97162.38
2022-12-05T08:05:29.256Z,97172.25
2022-12-05T08:10:22.735Z,97180.94
2022-12-05T08:15:16.619Z,97181.56
2022-12-05T08:20:11.715Z,97186.34
2022-12-05T08:25:07.699Z,97187.91
2022-12-05T08:30:01.053Z,97183.47
2022-12-05T08:34:54.529Z,97179.66
2022-12-05T08:39:47.809Z,97177.84
2022-12-05T08:44:42.549Z,97182.22
2022-12-05T08:49:35.985Z,97181.72
2022-12-05T08:54:29.736Z,97189.34
2022-12-05T08:59:23.092Z,97196.16
2022-12-05T09:04:18.145Z,97195.44
2022-12-05T09:09:13.556Z,97197.91
2022-12-05T09:14:07.472Z,97194.19
2022-12-05T09:19:01.416Z,97204.28
2022-12-05T09:23:57.460Z,97202.63
2022-12-05T09:28:54.651Z,97194.75
2022-12-05T09:33:49.943Z,97200.88
2022-12-05T09:38:45.115Z,97214.63
2022-12-05T09:43:53.592Z,97209.38
2022-12-05T09:48:47.936Z,97190.03
2022-12-05T09:53:44.534Z,97191.91
2022-12-05T09:58:46.070Z,97200.59
2022-12-05T10:03:48.322Z,97213.59
2022-12-05T10:09:06.558Z,97194.34
2022-12-05T10:14:12.339Z,97200.06
2022-12-05T10:19:16.123Z,97200.22
2022-12-05T10:24:18.040Z,97195.88
2022-12-05T10:29:26.932Z,97179.56
2022-12-05T10:34:30.998Z,97193.72
2022-12-05T10:39:24.633Z,97190.50
2022-12-05T10:44:19.484Z,97181.19
2022-12-05T10:49:14.392Z,97177.50
2022-12-05T10:54:20.033Z,97180.06
2022-12-05T10:59:17.175Z,97166.28
2022-12-05T11:04:30.562Z,97167.59
2022-12-05T11:09:27.633Z,97171.94
2022-12-05T11:14:25.430Z,97176.22
2022-12-05T11:19:29.719Z,97166.53
2022-12-05T11:24:28.120Z,97179.66
2022-12-05T11:29:36.097Z,97184.31
2022-12-05T11:34:39.592Z,97170.56
2022-12-05T11:39:35.282Z,97169.56
2022-12-05T11:45:05.012Z,97179.97
2022-12-05T11:50:29.445Z,97181.09
2022-12-05T11:55:34.518Z,97163.91
2022-12-05T12:00:41.333Z,97150.75
2022-12-05T12:05:46.158Z,97140.03
2022-12-05T12:10:53.201Z,97152.09
2022-12-05T12:16:08.566Z,97151.19
2022-12-05T12:21:19.115Z,97141.38
2022-12-05T12:26:19.233Z,97145.19
2022-12-05T12:31:52.233Z,97161.31
2022-12-05T12:36:56.875Z,97169.19
2022-12-05T12:42:17.349Z,97161.63
2022-12-05T12:47:21.886Z,97158.19
2022-12-05T12:52:23.425Z,97168.50
2022-12-05T12:57:29.607Z,97166.84
2022-12-05T13:02:33.167Z,97164.38
2022-12-05T13:07:36.486Z,97160.94
2022-12-05T13:12:38.051Z,97153.13
2022-12-05T13:17:34.467Z,97147.78
2022-12-05T13:22:30.555Z,97162.47
2022-12-05T13:27:27.629Z,97164.59
2022-12-05T13:32:32.956Z,97170.88
2022-12-05T13:37:49.005Z,97174.91
2022-12-05T13:42:44.093Z,97170.56
2022-12-05T13:47:56.912Z,97162.69
2022-12-05T13:58:45.820Z,97158.13
2022-12-05T14:04:00.149Z,97148.56
2022-12-05T14:08:55.867Z,97147.91
2022-12-05T14:13:49.685Z,97158.31
2022-12-05T14:18:51.650Z,97148.06
2022-12-05T14:24:09.029Z,97144.03
2022-12-05T14:29:27.993Z,97145.03
2022-12-05T14:34:27.632Z,97152.06
2022-12-05T14:39:39.200Z,97144.16
2022-12-05T14:44:33.427Z,97139.25
2022-12-05T14:49:55.782Z,97133.72
2022-12-05T14:54:53.947Z,97143.72
2022-12-05T14:59:53.904Z,97130.44
2022-12-05T15:04:54.328Z,97147.19
2022-12-05T15:10:09.729Z,97152.75
2022-12-05T15:15:14.702Z,97147.84
2022-12-05T15:20:21.365Z,97149.84
2022-12-05T15:25:27.090Z,97153.59
2022-12-05T15:30:20.917Z,97159.81
2022-12-05T15:35:17.339Z,97159.19
2022-12-05T15:40:17.842Z,97160.25
2022-12-05T15:45:23.620Z,97167.28
2022-12-05T15:50:21.582Z,97162.31
2022-12-05T15:55:26.549Z,97172.00
2022-12-05T16:00:23.518Z,97177.19
2022-12-05T16:05:25.795Z,97192.13
2022-12-05T16:10:24.689Z,97184.06
2022-12-05T16:15:44.435Z,97191.97
2022-12-05T16:20:41.294Z,97205.63
2022-12-05T16:25:46.625Z,97197.28
2022-12-05T16:30:41.453Z,97197.00
2022-12-05T16:35:39.331Z,97198.03
2022-12-05T16:40:38.163Z,97188.84
2022-12-05T16:47:23.163Z,97186.22
2022-12-05T16:59:40.239Z,97174.94
2022-12-05T17:05:07.225Z,97188.53
2022-12-05T17:10:08.696Z,97170.00
2022-12-05T17:15:33.117Z,97183.13
2022-12-05T17:21:06.770Z,97182.66
2022-12-05T17:26:12.864Z,97184.34
2022-12-05T17:31:43.949Z,97183.00
2022-12-05T17:37:25.994Z,97190.47
2022-12-05T17:42:42.421Z,97188.69
2022-12-05T17:47:37.885Z,97195.06
2022-12-05T17:52:31.496Z,97193.41
2022-12-05T17:57:24.871Z,97197.91
2022-12-05T18:02:20.185Z,97204.50
2022-12-05T18:07:15.332Z,97207.31
2022-12-05T18:12:08.934Z,97206.25
2022-12-05T18:17:16.537Z,97203.94
2022-12-05T18:22:10.011Z,97214.38
2022-12-05T18:27:04.957Z,97218.13
2022-12-05T18:31:58.408Z,97214.88
2022-12-05T18:36:54.489Z,97230.41
2022-12-05T18:41:48.148Z,97230.41
2022-12-05T18:46:42.913Z,97244.69
2022-12-05T18:51:36.298Z,97242.94
2022-12-05T18:56:38.264Z,97243.91
2022-12-05T19:01:33.532Z,97243.19
2022-12-05T19:06:39.305Z,97251.13
2022-12-05T19:11:35.087Z,97258.22
2022-12-05T19:22:30.578Z,97259.44
2022-12-05T19:27:44.602Z,97256.88
2022-12-05T19:33:53.781Z,97255.50
2022-12-05T19:39:04.427Z,97266.09
2022-12-05T20:02:13.346Z,97257.44
2022-12-05T20:07:09.827Z,97257.66
2022-12-05T20:12:07.012Z,97257.75
2022-12-05T20:17:02.856Z,97253.38
2022-12-05T20:28:34.543Z,97267.53
2022-12-05T20:33:33.835Z,97277.84
2022-12-05T20:38:50.245Z,97275.75
2022-12-05T20:44:26.050Z,97267.72
2022-12-05T20:49:21.392Z,97274.53
2022-12-05T20:54:39.937Z,97265.97
2022-12-05T20:59:34.709Z,97262.75
2022-12-05T21:04:28.233Z,97254.66
2022-12-05T21:09:28.704Z,97254.25
2022-12-05T21:14:22.319Z,97253.94
2022-12-05T21:19:22.878Z,97245.13
2022-12-05T21:24:16.394Z,97250.69
2022-12-05T21:29:10.682Z,97259.44
2022-12-05T21:34:07.380Z,97263.94
2022-12-05T21:39:02.485Z,97267.34
2022-12-05T21:43:56.465Z,97263.78
2022-12-05T21:48:50.014Z,97259.69
2022-12-05T21:53:46.560Z,97250.94
2022-12-05T21:58:43.059Z,97254.66
2022-12-05T22:03:36.495Z,97253.56
2022-12-05T22:08:30.855Z,97260.13
2022-12-05T22:13:24.162Z,97266.22
2022-12-05T22:18:18.858Z,97265.13
2022-12-05T22:23:16.600Z,97256.97
2022-12-05T22:28:10.282Z,97277.31
2022-12-05T22:33:06.148Z,97272.75
2022-12-05T22:38:00.966Z,97269.00
2022-12-05T22:42:54.316Z,97265.66
2022-12-05T22:47:47.751Z,97262.25
2022-12-05T22:52:41.114Z,97261.00
2022-12-05T22:57:35.838Z,97266.34
2022-12-05T23:02:29.215Z,97263.84
2022-12-05T23:07:22.560Z,97266.63
2022-12-05T23:12:15.930Z,97260.31
2022-12-05T23:17:10.681Z,97251.38
2022-12-05T23:22:04.051Z,97240.19
2022-12-05T23:26:57.441Z,97238.56
2022-12-05T23:31:50.793Z,97245.50
2022-12-05T23:36:45.711Z,97237.31
2022-12-05T23:41:39.110Z,97235.13
2022-12-05T23:46:35.074Z,97233.88
2022-12-05T23:51:30.931Z,97246.47
2022-12-05T23:56:29.561Z,97243.06
